sensor_id;sensor_type;location;lat;lon;timestamp;temperature;humidity
30467;DHT22;17258;52.560;13.046;2024-03-08T00:00:31;5.80;53.50
30467;DHT22;17258;52.560;13.046;2024-03-08T00:10:34;5.80;53.60
30467;DHT22;17258;52.560;13.046;2024-03-08T00:20:35;5.70;53.60
30467;DHT22;17258;52.560;13.046;2024-03-08T00:30:35;5.60;53.60
30467;DHT22;17258;52.560;13.046;2024-03-08T00:40:36;5.60;53.70
30467;DHT22;17258;52.560;13.046;2024-03-08T00:50:37;5.50;53.70
30467;DHT22;17258;52.560;13.046;2024-03-08T01:00:37;5.40;53.90
30467;DHT22;17258;52.560;13.046;2024-03-08T01:10:39;5.40;53.90
30467;DHT22;17258;52.560;13.046;2024-03-08T01:20:39;5.30;53.80
30467;DHT22;17258;52.560;13.046;2024-03-08T01:30:41;5.20;53.80
30467;DHT22;17258;52.560;13.046;2024-03-08T01:40:43;5.20;53.90
30467;DHT22;17258;52.560;13.046;2024-03-08T01:50:44;5.10;53.90
30467;DHT22;17258;52.560;13.046;2024-03-08T02:00:46;5.00;54.00
30467;DHT22;17258;52.560;13.046;2024-03-08T02:10:49;4.90;54.00
30467;DHT22;17258;52.560;13.046;2024-03-08T02:30:55;4.80;54.00
30467;DHT22;17258;52.560;13.046;2024-03-08T02:40:56;4.70;54.10
30467;DHT22;17258;52.560;13.046;2024-03-08T02:50:57;4.60;54.20
30467;DHT22;17258;52.560;13.046;2024-03-08T03:00:57;4.60;54.30
30467;DHT22;17258;52.560;13.046;2024-03-08T03:10:58;4.50;54.40
30467;DHT22;17258;52.560;13.046;2024-03-08T03:20:59;4.40;54.30
30467;DHT22;17258;52.560;13.046;2024-03-08T03:30:59;4.40;54.40
30467;DHT22;17258;52.560;13.046;2024-03-08T03:41:02;4.30;54.30
30467;DHT22;17258;52.560;13.046;2024-03-08T03:51:10;4.30;54.40
30467;DHT22;17258;52.560;13.046;2024-03-08T04:01:11;4.20;54.40
30467;DHT22;17258;52.560;13.046;2024-03-08T04:11:11;4.20;54.50
30467;DHT22;17258;52.560;13.046;2024-03-08T04:21:12;4.20;54.50
30467;DHT22;17258;52.560;13.046;2024-03-08T04:31:13;4.10;54.60
30467;DHT22;17258;52.560;13.046;2024-03-08T04:41:14;4.10;54.60
30467;DHT22;17258;52.560;13.046;2024-03-08T04:51:15;4.00;54.60
30467;DHT22;17258;52.560;13.046;2024-03-08T05:01:16;4.00;54.60
30467;DHT22;17258;52.560;13.046;2024-03-08T05:11:17;3.90;54.70
30467;DHT22;17258;52.560;13.046;2024-03-08T05:21:18;3.90;54.70
30467;DHT22;17258;52.560;13.046;2024-03-08T05:31:20;3.90;54.80
30467;DHT22;17258;52.560;13.046;2024-03-08T05:41:24;3.80;54.80
30467;DHT22;17258;52.560;13.046;2024-03-08T05:51:25;3.80;54.90
30467;DHT22;17258;52.560;13.046;2024-03-08T06:01:28;3.80;54.90
30467;DHT22;17258;52.560;13.046;2024-03-08T06:11:30;3.80;55.00
30467;DHT22;17258;52.560;13.046;2024-03-08T06:21:32;3.80;55.10
30467;DHT22;17258;52.560;13.046;2024-03-08T06:31:32;3.80;55.10
30467;DHT22;17258;52.560;13.046;2024-03-08T06:41:33;3.80;55.30
30467;DHT22;17258;52.560;13.046;2024-03-08T06:51:34;3.90;55.40
30467;DHT22;17258;52.560;13.046;2024-03-08T07:01:35;4.00;55.60
30467;DHT22;17258;52.560;13.046;2024-03-08T07:11:36;4.20;55.90
30467;DHT22;17258;52.560;13.046;2024-03-08T07:21:37;4.40;56.20
30467;DHT22;17258;52.560;13.046;2024-03-08T07:31:38;4.70;56.50
30467;DHT22;17258;52.560;13.046;2024-03-08T07:41:50;5.10;56.80
30467;DHT22;17258;52.560;13.046;2024-03-08T07:51:54;5.60;57.10
30467;DHT22;17258;52.560;13.046;2024-03-08T08:01:55;6.00;57.20
30467;DHT22;17258;52.560;13.046;2024-03-08T08:11:55;6.50;57.30
30467;DHT22;17258;52.560;13.046;2024-03-08T08:21:56;6.90;57.40
30467;DHT22;17258;52.560;13.046;2024-03-08T08:31:58;7.50;57.30
30467;DHT22;17258;52.560;13.046;2024-03-08T08:41:59;8.00;57.20
30467;DHT22;17258;52.560;13.046;2024-03-08T08:52:00;8.50;57.10
30467;DHT22;17258;52.560;13.046;2024-03-08T09:02:02;8.90;56.80
30467;DHT22;17258;52.560;13.046;2024-03-08T09:12:04;9.30;56.50
30467;DHT22;17258;52.560;13.046;2024-03-08T09:22:04;9.70;56.40
30467;DHT22;17258;52.560;13.046;2024-03-08T09:32:05;10.10;56.10
30467;DHT22;17258;52.560;13.046;2024-03-08T09:42:06;10.40;55.80
30467;DHT22;17258;52.560;13.046;2024-03-08T09:52:07;10.80;55.60
30467;DHT22;17258;52.560;13.046;2024-03-08T10:02:13;11.10;54.70
30467;DHT22;17258;52.560;13.046;2024-03-08T10:12:18;11.50;54.60
30467;DHT22;17258;52.560;13.046;2024-03-08T10:22:19;11.70;54.40
30467;DHT22;17258;52.560;13.046;2024-03-08T10:32:20;11.90;54.00
30467;DHT22;17258;52.560;13.046;2024-03-08T10:42:25;12.00;53.80
30467;DHT22;17258;52.560;13.046;2024-03-08T10:52:28;12.20;53.40
30467;DHT22;17258;52.560;13.046;2024-03-08T11:02:30;12.20;53.40
30467;DHT22;17258;52.560;13.046;2024-03-08T11:12:36;12.40;52.90
30467;DHT22;17258;52.560;13.046;2024-03-08T11:22:38;12.50;52.50
30467;DHT22;17258;52.560;13.046;2024-03-08T11:32:45;12.60;53.00
30467;DHT22;17258;52.560;13.046;2024-03-08T11:42:47;12.90;52.60
30467;DHT22;17258;52.560;13.046;2024-03-08T11:52:48;13.10;52.70
30467;DHT22;17258;52.560;13.046;2024-03-08T12:03:06;13.30;52.50
30467;DHT22;17258;52.560;13.046;2024-03-08T12:13:09;13.50;51.10
30467;DHT22;17258;52.560;13.046;2024-03-08T12:23:14;13.80;52.10
30467;DHT22;17258;52.560;13.046;2024-03-08T12:33:16;14.10;51.50
30467;DHT22;17258;52.560;13.046;2024-03-08T12:43:17;14.30;51.00
30467;DHT22;17258;52.560;13.046;2024-03-08T12:53:19;14.40;50.60
30467;DHT22;17258;52.560;13.046;2024-03-08T13:03:19;14.60;50.40
30467;DHT22;17258;52.560;13.046;2024-03-08T13:13:21;14.70;50.30
30467;DHT22;17258;52.560;13.046;2024-03-08T13:23:21;14.90;49.70
30467;DHT22;17258;52.560;13.046;2024-03-08T13:33:22;14.90;49.20
30467;DHT22;17258;52.560;13.046;2024-03-08T13:43:23;15.00;49.00
30467;DHT22;17258;52.560;13.046;2024-03-08T13:53:24;15.00;49.20
30467;DHT22;17258;52.560;13.046;2024-03-08T14:03:25;15.00;49.00
30467;DHT22;17258;52.560;13.046;2024-03-08T14:13:26;15.00;48.60
30467;DHT22;17258;52.560;13.046;2024-03-08T14:23:27;15.10;48.40
30467;DHT22;17258;52.560;13.046;2024-03-08T14:33:27;15.00;48.50
30467;DHT22;17258;52.560;13.046;2024-03-08T14:43:28;15.00;48.40
30467;DHT22;17258;52.560;13.046;2024-03-08T14:53:29;15.00;48.10
30467;DHT22;17258;52.560;13.046;2024-03-08T15:03:30;14.90;48.30
30467;DHT22;17258;52.560;13.046;2024-03-08T15:13:31;14.90;48.30
30467;DHT22;17258;52.560;13.046;2024-03-08T15:23:41;14.80;48.50
30467;DHT22;17258;52.560;13.046;2024-03-08T15:33:46;14.70;48.30
30467;DHT22;17258;52.560;13.046;2024-03-08T15:43:58;14.70;48.10
30467;DHT22;17258;52.560;13.046;2024-03-08T15:53:59;14.60;48.10
30467;DHT22;17258;52.560;13.046;2024-03-08T16:04:00;14.50;48.10
30467;DHT22;17258;52.560;13.046;2024-03-08T16:14:01;14.30;48.10
30467;DHT22;17258;52.560;13.046;2024-03-08T16:24:03;14.30;48.20
30467;DHT22;17258;52.560;13.046;2024-03-08T16:34:04;14.10;48.00
30467;DHT22;17258;52.560;13.046;2024-03-08T16:44:05;13.90;48.00
30467;DHT22;17258;52.560;13.046;2024-03-08T16:54:06;13.80;47.90
30467;DHT22;17258;52.560;13.046;2024-03-08T17:04:08;13.60;47.90
30467;DHT22;17258;52.560;13.046;2024-03-08T17:14:09;13.40;47.80
30467;DHT22;17258;52.560;13.046;2024-03-08T17:24:12;13.20;47.80
30467;DHT22;17258;52.560;13.046;2024-03-08T17:34:17;13.00;47.80
30467;DHT22;17258;52.560;13.046;2024-03-08T17:44:20;12.80;47.80
30467;DHT22;17258;52.560;13.046;2024-03-08T17:54:22;12.70;48.00
30467;DHT22;17258;52.560;13.046;2024-03-08T18:04:23;12.50;48.10
30467;DHT22;17258;52.560;13.046;2024-03-08T18:14:24;12.40;48.10
30467;DHT22;17258;52.560;13.046;2024-03-08T18:24:25;12.20;48.10
30467;DHT22;17258;52.560;13.046;2024-03-08T18:34:27;12.00;48.10
30467;DHT22;17258;52.560;13.046;2024-03-08T18:44:27;11.90;48.20
30467;DHT22;17258;52.560;13.046;2024-03-08T18:54:28;11.70;48.30
30467;DHT22;17258;52.560;13.046;2024-03-08T19:04:29;11.50;48.30
30467;DHT22;17258;52.560;13.046;2024-03-08T19:14:29;11.40;48.50
30467;DHT22;17258;52.560;13.046;2024-03-08T19:24:31;11.30;48.50
30467;DHT22;17258;52.560;13.046;2024-03-08T19:34:35;11.30;48.60
30467;DHT22;17258;52.560;13.046;2024-03-08T19:44:35;11.20;48.60
30467;DHT22;17258;52.560;13.046;2024-03-08T19:54:36;11.10;48.60
30467;DHT22;17258;52.560;13.046;2024-03-08T20:04:38;11.00;48.50
30467;DHT22;17258;52.560;13.046;2024-03-08T20:14:39;11.00;48.40
30467;DHT22;17258;52.560;13.046;2024-03-08T20:24:40;10.90;48.60
30467;DHT22;17258;52.560;13.046;2024-03-08T20:34:41;10.80;48.50
30467;DHT22;17258;52.560;13.046;2024-03-08T20:44:42;10.70;48.60
30467;DHT22;17258;52.560;13.046;2024-03-08T20:54:43;10.60;49.30
30467;DHT22;17258;52.560;13.046;2024-03-08T21:04:44;10.60;48.70
30467;DHT22;17258;52.560;13.046;2024-03-08T21:14:51;10.40;48.60
30467;DHT22;17258;52.560;13.046;2024-03-08T21:24:52;10.40;48.80
30467;DHT22;17258;52.560;13.046;2024-03-08T21:34:53;10.30;48.80
30467;DHT22;17258;52.560;13.046;2024-03-08T21:44:54;10.20;48.90
30467;DHT22;17258;52.560;13.046;2024-03-08T21:54:56;10.10;48.90
30467;DHT22;17258;52.560;13.046;2024-03-08T22:04:57;10.00;49.00
30467;DHT22;17258;52.560;13.046;2024-03-08T22:14:58;9.90;49.10
30467;DHT22;17258;52.560;13.046;2024-03-08T22:24:59;9.80;49.80
30467;DHT22;17258;52.560;13.046;2024-03-08T22:35:01;9.80;49.30
30467;DHT22;17258;52.560;13.046;2024-03-08T22:45:02;9.70;49.30
30467;DHT22;17258;52.560;13.046;2024-03-08T22:55:04;9.60;49.30
30467;DHT22;17258;52.560;13.046;2024-03-08T23:05:07;9.60;49.50
30467;DHT22;17258;52.560;13.046;2024-03-08T23:15:08;9.50;49.60
30467;DHT22;17258;52.560;13.046;2024-03-08T23:25:15;9.40;49.70
30467;DHT22;17258;52.560;13.046;2024-03-08T23:35:19;9.40;49.70
30467;DHT22;17258;52.560;13.046;2024-03-08T23:45:21;9.30;49.70
30467;DHT22;17258;52.560;13.046;2024-03-08T23:55:23;9.20;49.80
